sensor_id;sensor_type;location;lat;lon;timestamp;pressure;altitude;pressure_sealevel;temperature;humidity
78843;BME280;70542;53.774;-0.352;2023-06-24T00:02:28;102170;;;21;43
78843;BME280;70542;53.774;-0.352;2023-06-24T00:08:07;102160;;;22;41
78843;BME280;70542;53.774;-0.352;2023-06-24T00:13:46;102170;;;22;41
78843;BME280;70542;53.774;-0.352;2023-06-24T00:19:26;102160;;;23;38
78843;BME280;70542;53.774;-0.352;2023-06-24T00:25:08;102160;;;24;37
78843;BME280;70542;53.774;-0.352;2023-06-24T00:30:47;102160;;;22;41
78843;BME280;70542;53.774;-0.352;2023-06-24T00:36:33;102160;;;20;44
78843;BME280;70542;53.774;-0.352;2023-06-24T00:42:13;102160;;;20;45
78843;BME280;70542;53.774;-0.352;2023-06-24T00:47:59;102160;;;22;41
78843;BME280;70542;53.774;-0.352;2023-06-24T00:53:39;102150;;;23;40
78843;BME280;70542;53.774;-0.352;2023-06-24T00:59:23;102140;;;22;42
78843;BME280;70542;53.774;-0.352;2023-06-24T01:05:03;102140;;;21;44
78843;BME280;70542;53.774;-0.352;2023-06-24T01:10:42;102150;;;19;47
78843;BME280;70542;53.774;-0.352;2023-06-24T01:16:27;102140;;;20;46
78843;BME280;70542;53.774;-0.352;2023-06-24T01:22:30;102140;;;21;44
78843;BME280;70542;53.774;-0.352;2023-06-24T01:28:24;102140;;;19;47
78843;BME280;70542;53.774;-0.352;2023-06-24T01:34:15;102150;;;19;47
78843;BME280;70542;53.774;-0.352;2023-06-24T01:40:03;102150;;;20;45
78843;BME280;70542;53.774;-0.352;2023-06-24T01:45:48;102140;;;20;45
78843;BME280;70542;53.774;-0.352;2023-06-24T01:51:29;102140;;;20;46
78843;BME280;70542;53.774;-0.352;2023-06-24T01:57:11;102140;;;19;46
78843;BME280;70542;53.774;-0.352;2023-06-24T02:02:51;102140;;;19;47
78843;BME280;70542;53.774;-0.352;2023-06-24T02:08:33;102150;;;20;46
78843;BME280;70542;53.774;-0.352;2023-06-24T02:14:14;102140;;;20;46
78843;BME280;70542;53.774;-0.352;2023-06-24T02:19:55;102140;;;19;47
78843;BME280;70542;53.774;-0.352;2023-06-24T02:25:35;102130;;;21;44
78843;BME280;70542;53.774;-0.352;2023-06-24T02:31:16;102140;;;20;45
78843;BME280;70542;53.774;-0.352;2023-06-24T02:36:56;102130;;;21;43
78843;BME280;70542;53.774;-0.352;2023-06-24T02:42:35;102130;;;20;47
78843;BME280;70542;53.774;-0.352;2023-06-24T02:48:14;102120;;;21;45
78843;BME280;70542;53.774;-0.352;2023-06-24T02:53:55;102120;;;20;46
78843;BME280;70542;53.774;-0.352;2023-06-24T02:59:34;102120;;;20;46
78843;BME280;70542;53.774;-0.352;2023-06-24T03:05:14;102110;;;22;43
78843;BME280;70542;53.774;-0.352;2023-06-24T03:10:55;102120;;;22;42
78843;BME280;70542;53.774;-0.352;2023-06-24T03:16:58;102120;;;21;44
78843;BME280;70542;53.774;-0.352;2023-06-24T03:22:37;102120;;;21;45
78843;BME280;70542;53.774;-0.352;2023-06-24T03:28:16;102110;;;19;48
78843;BME280;70542;53.774;-0.352;2023-06-24T03:33:55;102120;;;20;46
78843;BME280;70542;53.774;-0.352;2023-06-24T03:39:34;102120;;;20;46
78843;BME280;70542;53.774;-0.352;2023-06-24T03:45:13;102120;;;20;47
78843;BME280;70542;53.774;-0.352;2023-06-24T03:50:58;102120;;;20;46
78843;BME280;70542;53.774;-0.352;2023-06-24T03:56:37;102110;;;22;42
78843;BME280;70542;53.774;-0.352;2023-06-24T04:02:19;102120;;;21;44
78843;BME280;70542;53.774;-0.352;2023-06-24T04:08:04;102120;;;21;43
78843;BME280;70542;53.774;-0.352;2023-06-24T04:13:46;102110;;;22;43
78843;BME280;70542;53.774;-0.352;2023-06-24T04:19:26;102120;;;21;45
78843;BME280;70542;53.774;-0.352;2023-06-24T04:25:06;102120;;;22;43
78843;BME280;70542;53.774;-0.352;2023-06-24T04:30:45;102120;;;22;42
78843;BME280;70542;53.774;-0.352;2023-06-24T04:36:24;102120;;;20;45
78843;BME280;70542;53.774;-0.352;2023-06-24T04:42:04;102130;;;20;45
78843;BME280;70542;53.774;-0.352;2023-06-24T04:47:43;102130;;;21;44
78843;BME280;70542;53.774;-0.352;2023-06-24T04:53:21;102130;;;22;43
78843;BME280;70542;53.774;-0.352;2023-06-24T04:59:01;102140;;;21;43
78843;BME280;70542;53.774;-0.352;2023-06-24T05:04:41;102150;;;21;44
78843;BME280;70542;53.774;-0.352;2023-06-24T05:10:20;102150;;;20;46
78843;BME280;70542;53.774;-0.352;2023-06-24T05:15:59;102140;;;22;42
78843;BME280;70542;53.774;-0.352;2023-06-24T05:21:42;102140;;;23;41
78843;BME280;70542;53.774;-0.352;2023-06-24T05:27:21;102140;;;22;42
78843;BME280;70542;53.774;-0.352;2023-06-24T05:33:00;102140;;;21;45
78843;BME280;70542;53.774;-0.352;2023-06-24T05:38:42;102140;;;20;46
78843;BME280;70542;53.774;-0.352;2023-06-24T05:44:22;102140;;;20;47
78843;BME280;70542;53.774;-0.352;2023-06-24T05:50:01;102140;;;20;47
78843;BME280;70542;53.774;-0.352;2023-06-24T05:55:39;102140;;;21;46
78843;BME280;70542;53.774;-0.352;2023-06-24T06:01:18;102140;;;20;48
78843;BME280;70542;53.774;-0.352;2023-06-24T06:07:03;102150;;;20;48
78843;BME280;70542;53.774;-0.352;2023-06-24T06:12:48;102150;;;21;46
78843;BME280;70542;53.774;-0.352;2023-06-24T06:18:32;102150;;;23;42
78843;BME280;70542;53.774;-0.352;2023-06-24T06:24:11;102150;;;22;45
78843;BME280;70542;53.774;-0.352;2023-06-24T06:29:50;102170;;;21;46
78843;BME280;70542;53.774;-0.352;2023-06-24T06:35:29;102160;;;21;45
78843;BME280;70542;53.774;-0.352;2023-06-24T06:41:08;102160;;;23;43
78843;BME280;70542;53.774;-0.352;2023-06-24T06:46:46;102160;;;22;43
78843;BME280;70542;53.774;-0.352;2023-06-24T06:52:25;102160;;;22;43
78843;BME280;70542;53.774;-0.352;2023-06-24T06:58:04;102160;;;22;43
78843;BME280;70542;53.774;-0.352;2023-06-24T07:03:43;102160;;;21;45
78843;BME280;70542;53.774;-0.352;2023-06-24T07:09:22;102170;;;23;43
78843;BME280;70542;53.774;-0.352;2023-06-24T07:15:01;102170;;;23;43
78843;BME280;70542;53.774;-0.352;2023-06-24T07:20:44;102170;;;23;41
78843;BME280;70542;53.774;-0.352;2023-06-24T07:26:23;102180;;;24;40
78843;BME280;70542;53.774;-0.352;2023-06-24T07:32:02;102190;;;24;40
78843;BME280;70542;53.774;-0.352;2023-06-24T07:37:41;102180;;;23;41
78843;BME280;70542;53.774;-0.352;2023-06-24T07:43:19;102180;;;23;43
78843;BME280;70542;53.774;-0.352;2023-06-24T07:48:58;102180;;;22;44
78843;BME280;70542;53.774;-0.352;2023-06-24T07:54:36;102170;;;24;42
78843;BME280;70542;53.774;-0.352;2023-06-24T08:00:16;102180;;;24;40
78843;BME280;70542;53.774;-0.352;2023-06-24T08:05:55;102190;;;24;41
78843;BME280;70542;53.774;-0.352;2023-06-24T08:11:34;102190;;;23;42
78843;BME280;70542;53.774;-0.352;2023-06-24T08:17:23;102200;;;23;41
78843;BME280;70542;53.774;-0.352;2023-06-24T08:23:17;102200;;;23;42
78843;BME280;70542;53.774;-0.352;2023-06-24T08:28:56;102200;;;22;44
78843;BME280;70542;53.774;-0.352;2023-06-24T08:34:36;102200;;;23;42
78843;BME280;70542;53.774;-0.352;2023-06-24T08:41:26;102210;;;24;40
78843;BME280;70542;53.774;-0.352;2023-06-24T08:47:39;102200;;;24;41
78843;BME280;70542;53.774;-0.352;2023-06-24T08:53:20;102210;;;24;42
78843;BME280;70542;53.774;-0.352;2023-06-24T08:59:00;102210;;;23;43
78843;BME280;70542;53.774;-0.352;2023-06-24T09:04:39;102200;;;23;43
78843;BME280;70542;53.774;-0.352;2023-06-24T09:10:30;102200;;;23;42
78843;BME280;70542;53.774;-0.352;2023-06-24T09:16:12;102180;;;24;41
78843;BME280;70542;53.774;-0.352;2023-06-24T09:21:51;102200;;;25;39
78843;BME280;70542;53.774;-0.352;2023-06-24T09:27:32;102190;;;25;39
78843;BME280;70542;53.774;-0.352;2023-06-24T09:33:11;102200;;;25;39
78843;BME280;70542;53.774;-0.352;2023-06-24T09:38:49;102190;;;23;42
78843;BME280;70542;53.774;-0.352;2023-06-24T09:44:29;102180;;;25;38
78843;BME280;70542;53.774;-0.352;2023-06-24T09:50:08;102180;;;25;37
78843;BME280;70542;53.774;-0.352;2023-06-24T09:55:48;102180;;;25;38
78843;BME280;70542;53.774;-0.352;2023-06-24T10:01:27;102180;;;24;40
78843;BME280;70542;53.774;-0.352;2023-06-24T10:07:06;102180;;;24;40
78843;BME280;70542;53.774;-0.352;2023-06-24T10:12:45;102170;;;24;40
78843;BME280;70542;53.774;-0.352;2023-06-24T10:18:33;102160;;;24;40
78843;BME280;70542;53.774;-0.352;2023-06-24T10:24:12;102160;;;26;37
78843;BME280;70542;53.774;-0.352;2023-06-24T10:29:53;102160;;;26;36
78843;BME280;70542;53.774;-0.352;2023-06-24T10:35:33;102160;;;26;37
78843;BME280;70542;53.774;-0.352;2023-06-24T10:41:15;102160;;;24;38
78843;BME280;70542;53.774;-0.352;2023-06-24T10:46:54;102160;;;25;38
78843;BME280;70542;53.774;-0.352;2023-06-24T10:52:37;102160;;;25;38
78843;BME280;70542;53.774;-0.352;2023-06-24T10:58:16;102160;;;25;38
78843;BME280;70542;53.774;-0.352;2023-06-24T11:03:55;102160;;;26;36
78843;BME280;70542;53.774;-0.352;2023-06-24T11:09:40;102170;;;26;36
78843;BME280;70542;53.774;-0.352;2023-06-24T11:15:19;102160;;;26;38
78843;BME280;70542;53.774;-0.352;2023-06-24T11:20:57;102170;;;25;38
78843;BME280;70542;53.774;-0.352;2023-06-24T11:26:36;102160;;;25;38
78843;BME280;70542;53.774;-0.352;2023-06-24T11:32:15;102160;;;25;40
78843;BME280;70542;53.774;-0.352;2023-06-24T11:37:58;102150;;;26;37
78843;BME280;70542;53.774;-0.352;2023-06-24T11:43:36;102150;;;26;37
78843;BME280;70542;53.774;-0.352;2023-06-24T11:49:15;102150;;;26;38
78843;BME280;70542;53.774;-0.352;2023-06-24T11:54:54;102150;;;26;37
78843;BME280;70542;53.774;-0.352;2023-06-24T12:00:35;102150;;;28;35
78843;BME280;70542;53.774;-0.352;2023-06-24T12:06:15;102150;;;27;36
78843;BME280;70542;53.774;-0.352;2023-06-24T12:11:53;102140;;;27;36
78843;BME280;70542;53.774;-0.352;2023-06-24T12:17:32;102140;;;28;34
78843;BME280;70542;53.774;-0.352;2023-06-24T12:23:10;102140;;;27;34
78843;BME280;70542;53.774;-0.352;2023-06-24T12:28:49;102130;;;27;35
78843;BME280;70542;53.774;-0.352;2023-06-24T12:34:28;102130;;;26;36
78843;BME280;70542;53.774;-0.352;2023-06-24T12:40:11;102130;;;27;35
78843;BME280;70542;53.774;-0.352;2023-06-24T12:45:50;102130;;;28;33
78843;BME280;70542;53.774;-0.352;2023-06-24T12:51:28;102120;;;27;35
78843;BME280;70542;53.774;-0.352;2023-06-24T12:57:07;102130;;;27;36
78843;BME280;70542;53.774;-0.352;2023-06-24T13:02:51;102120;;;26;36
78843;BME280;70542;53.774;-0.352;2023-06-24T13:08:29;102120;;;27;34
78843;BME280;70542;53.774;-0.352;2023-06-24T13:14:08;102110;;;27;35
78843;BME280;70542;53.774;-0.352;2023-06-24T13:19:47;102120;;;27;35
78843;BME280;70542;53.774;-0.352;2023-06-24T13:25:26;102120;;;27;34
78843;BME280;70542;53.774;-0.352;2023-06-24T13:31:05;102120;;;28;32
78843;BME280;70542;53.774;-0.352;2023-06-24T13:36:43;102130;;;27;34
78843;BME280;70542;53.774;-0.352;2023-06-24T13:42:22;102120;;;27;34
78843;BME280;70542;53.774;-0.352;2023-06-24T13:48:01;102120;;;26;35
78843;BME280;70542;53.774;-0.352;2023-06-24T13:53:39;102100;;;29;32
78843;BME280;70542;53.774;-0.352;2023-06-24T13:59:18;102100;;;28;32
78843;BME280;70542;53.774;-0.352;2023-06-24T14:05:02;102100;;;28;32
78843;BME280;70542;53.774;-0.352;2023-06-24T14:10:41;102090;;;27;33
78843;BME280;70542;53.774;-0.352;2023-06-24T14:16:19;102100;;;28;33
78843;BME280;70542;53.774;-0.352;2023-06-24T14:21:58;102090;;;28;34
78843;BME280;70542;53.774;-0.352;2023-06-24T14:27:37;102090;;;27;36
78843;BME280;70542;53.774;-0.352;2023-06-24T14:33:21;102090;;;28;34
78843;BME280;70542;53.774;-0.352;2023-06-24T14:39:00;102080;;;27;35
78843;BME280;70542;53.774;-0.352;2023-06-24T14:44:39;102080;;;28;32
78843;BME280;70542;53.774;-0.352;2023-06-24T14:50:18;102080;;;30;30
78843;BME280;70542;53.774;-0.352;2023-06-24T14:55:56;102070;;;28;31
78843;BME280;70542;53.774;-0.352;2023-06-24T15:02:03;102070;;;29;30
78843;BME280;70542;53.774;-0.352;2023-06-24T15:07:41;102070;;;28;33
78843;BME280;70542;53.774;-0.352;2023-06-24T15:13:23;102070;;;28;33
78843;BME280;70542;53.774;-0.352;2023-06-24T15:19:07;102060;;;29;31
78843;BME280;70542;53.774;-0.352;2023-06-24T15:24:45;102060;;;28;33
78843;BME280;70542;53.774;-0.352;2023-06-24T15:30:24;102050;;;28;33
78843;BME280;70542;53.774;-0.352;2023-06-24T15:36:03;102040;;;28;32
78843;BME280;70542;53.774;-0.352;2023-06-24T15:41:47;102050;;;27;33
78843;BME280;70542;53.774;-0.352;2023-06-24T15:47:32;102040;;;30;30
78843;BME280;70542;53.774;-0.352;2023-06-24T15:53:11;102040;;;30;29
78843;BME280;70542;53.774;-0.352;2023-06-24T15:58:49;102040;;;29;30
78843;BME280;70542;53.774;-0.352;2023-06-24T16:04:28;102040;;;28;31
78843;BME280;70542;53.774;-0.352;2023-06-24T16:10:08;102030;;;30;30
78843;BME280;70542;53.774;-0.352;2023-06-24T16:15:46;102020;;;30;28
78843;BME280;70542;53.774;-0.352;2023-06-24T16:21:25;102030;;;30;28
78843;BME280;70542;53.774;-0.352;2023-06-24T16:27:05;102020;;;29;30
78843;BME280;70542;53.774;-0.352;2023-06-24T16:32:46;102010;;;29;30
78843;BME280;70542;53.774;-0.352;2023-06-24T16:38:25;102010;;;30;28
78843;BME280;70542;53.774;-0.352;2023-06-24T16:44:04;102000;;;30;28
78843;BME280;70542;53.774;-0.352;2023-06-24T16:49:43;102000;;;31;27
78843;BME280;70542;53.774;-0.352;2023-06-24T16:55:38;102000;;;30;28
78843;BME280;70542;53.774;-0.352;2023-06-24T17:01:22;101990;;;32;26
78843;BME280;70542;53.774;-0.352;2023-06-24T17:07:04;102000;;;31;26
78843;BME280;70542;53.774;-0.352;2023-06-24T17:12:43;102000;;;31;28
78843;BME280;70542;53.774;-0.352;2023-06-24T17:18:23;101990;;;30;28
78843;BME280;70542;53.774;-0.352;2023-06-24T17:30:57;101980;;;32;26
78843;BME280;70542;53.774;-0.352;2023-06-24T17:37:07;101980;;;32;26
78843;BME280;70542;53.774;-0.352;2023-06-24T17:42:46;101980;;;33;25
78843;BME280;70542;53.774;-0.352;2023-06-24T17:48:25;101970;;;31;26
78843;BME280;70542;53.774;-0.352;2023-06-24T17:54:03;101970;;;34;22
78843;BME280;70542;53.774;-0.352;2023-06-24T17:59:42;101970;;;33;24
78843;BME280;70542;53.774;-0.352;2023-06-24T18:05:22;101970;;;33;23
78843;BME280;70542;53.774;-0.352;2023-06-24T18:11:02;101970;;;33;24
78843;BME280;70542;53.774;-0.352;2023-06-24T18:16:49;101970;;;32;24
78843;BME280;70542;53.774;-0.352;2023-06-24T18:22:28;101970;;;32;25
78843;BME280;70542;53.774;-0.352;2023-06-24T18:28:07;101960;;;32;26
78843;BME280;70542;53.774;-0.352;2023-06-24T18:33:46;101960;;;31;26
78843;BME280;70542;53.774;-0.352;2023-06-24T18:39:26;101960;;;32;26
78843;BME280;70542;53.774;-0.352;2023-06-24T18:45:07;101960;;;31;26
78843;BME280;70542;53.774;-0.352;2023-06-24T18:50:46;101950;;;33;23
78843;BME280;70542;53.774;-0.352;2023-06-24T18:56:30;101950;;;33;24
78843;BME280;70542;53.774;-0.352;2023-06-24T19:02:15;101940;;;34;22
78843;BME280;70542;53.774;-0.352;2023-06-24T19:07:59;101940;;;34;23
78843;BME280;70542;53.774;-0.352;2023-06-24T19:13:40;101940;;;33;24
78843;BME280;70542;53.774;-0.352;2023-06-24T19:19:25;101930;;;32;25
78843;BME280;70542;53.774;-0.352;2023-06-24T19:25:07;101940;;;32;25
78843;BME280;70542;53.774;-0.352;2023-06-24T19:30:46;101930;;;31;27
78843;BME280;70542;53.774;-0.352;2023-06-24T19:36:26;101930;;;31;27
78843;BME280;70542;53.774;-0.352;2023-06-24T19:42:06;101920;;;32;27
78843;BME280;70542;53.774;-0.352;2023-06-24T19:47:45;101920;;;30;29
78843;BME280;70542;53.774;-0.352;2023-06-24T19:53:24;101920;;;28;32
78843;BME280;70542;53.774;-0.352;2023-06-24T19:59:05;101920;;;28;32
78843;BME280;70542;53.774;-0.352;2023-06-24T20:04:45;101910;;;30;29
78843;BME280;70542;53.774;-0.352;2023-06-24T20:10:31;101910;;;29;31
78843;BME280;70542;53.774;-0.352;2023-06-24T20:16:15;101910;;;28;32
78843;BME280;70542;53.774;-0.352;2023-06-24T20:21:55;101920;;;28;33
78843;BME280;70542;53.774;-0.352;2023-06-24T20:27:39;101910;;;25;39
78843;BME280;70542;53.774;-0.352;2023-06-24T20:33:18;101920;;;23;43
78843;BME280;70542;53.774;-0.352;2023-06-24T20:39:03;101920;;;25;41
78843;BME280;70542;53.774;-0.352;2023-06-24T20:44:47;101910;;;24;43
78843;BME280;70542;53.774;-0.352;2023-06-24T20:50:31;101910;;;21;49
78843;BME280;70542;53.774;-0.352;2023-06-24T20:56:10;101900;;;24;43
78843;BME280;70542;53.774;-0.352;2023-06-24T21:01:50;101910;;;22;47
78843;BME280;70542;53.774;-0.352;2023-06-24T21:07:28;101900;;;23;46
78843;BME280;70542;53.774;-0.352;2023-06-24T21:13:07;101900;;;22;48
78843;BME280;70542;53.774;-0.352;2023-06-24T21:18:46;101890;;;22;47
78843;BME280;70542;53.774;-0.352;2023-06-24T21:24:24;101890;;;23;45
78843;BME280;70542;53.774;-0.352;2023-06-24T21:30:05;101890;;;23;45
78843;BME280;70542;53.774;-0.352;2023-06-24T21:35:44;101880;;;22;46
78843;BME280;70542;53.774;-0.352;2023-06-24T21:41:32;101880;;;22;48
78843;BME280;70542;53.774;-0.352;2023-06-24T21:47:19;101870;;;23;46
78843;BME280;70542;53.774;-0.352;2023-06-24T21:52:57;101870;;;23;46
78843;BME280;70542;53.774;-0.352;2023-06-24T21:58:36;101870;;;21;51
78843;BME280;70542;53.774;-0.352;2023-06-24T22:04:15;101860;;;21;52
78843;BME280;70542;53.774;-0.352;2023-06-24T22:09:53;101860;;;21;53
78843;BME280;70542;53.774;-0.352;2023-06-24T22:15:37;101850;;;21;53
78843;BME280;70542;53.774;-0.352;2023-06-24T22:21:16;101860;;;21;52
78843;BME280;70542;53.774;-0.352;2023-06-24T22:26:54;101840;;;22;50
78843;BME280;70542;53.774;-0.352;2023-06-24T22:32:46;101840;;;22;51
78843;BME280;70542;53.774;-0.352;2023-06-24T22:38:24;101840;;;21;52
78843;BME280;70542;53.774;-0.352;2023-06-24T22:44:03;101840;;;20;54
78843;BME280;70542;53.774;-0.352;2023-06-24T22:49:42;101850;;;21;53
78843;BME280;70542;53.774;-0.352;2023-06-24T22:55:26;101840;;;21;51
78843;BME280;70542;53.774;-0.352;2023-06-24T23:01:05;101850;;;23;47
78843;BME280;70542;53.774;-0.352;2023-06-24T23:06:44;101850;;;23;47
78843;BME280;70542;53.774;-0.352;2023-06-24T23:12:24;101840;;;21;51
78843;BME280;70542;53.774;-0.352;2023-06-24T23:18:03;101840;;;23;47
78843;BME280;70542;53.774;-0.352;2023-06-24T23:23:42;101830;;;22;48
78843;BME280;70542;53.774;-0.352;2023-06-24T23:29:23;101830;;;23;47
78843;BME280;70542;53.774;-0.352;2023-06-24T23:35:05;101830;;;22;47
78843;BME280;70542;53.774;-0.352;2023-06-24T23:40:44;101820;;;21;50
78843;BME280;70542;53.774;-0.352;2023-06-24T23:46:23;101820;;;22;49
78843;BME280;70542;53.774;-0.352;2023-06-24T23:52:03;101810;;;21;48
78843;BME280;70542;53.774;-0.352;2023-06-24T23:57:42;101810;;;21;48
